Hauptseite
METAR-TAF:

METAR-TAF

Flughäfen :

Peking, China

Flughafen Peking

Breite: 39-56N, Länge: 116-17E, Höhe: 55 m

Beobachtung

Neuester Wetterbericht von vor 12 Minuten, um 04:00 UTC
Wind 6 kt aus unterschiedlichen Richtungen
Temperatur 21°C
Luftfeuchtigkeit 16%
Luftdruck 1022 hPa
Sichtweite 10 km oder mehr
keine Wolken unter 1500 m und keine Kumulonimbus oder Gewitterwolken

METAR: ZBAA 260400Z VRB03MPS CAVOK 21/M06 Q1022 BECMG TL0520 31006MPS

Zeit: 12:12 (04:12 UTC)

Prognose

Neuester Wetterbericht von vor 6 Stunden und 52 Minuten, um 21:20 UTC
Gültige Prognose vom 26 um 00 UTC bis 26 um 24 UTC
Wind 8 kt aus Nord/Nordwest
Sichtweite 10 km oder mehr
keine Wolken unter 1500 m und keine Kumulonimbus oder Gewitterwolken

TAF: ZBAA 252120Z 2600/2624 34004MPS CAVOK TX22/2607Z TN09/2621Z

Wetterbeobachtungen und Prognosen von mehr als 4000 Flughäfen (METAR und TAF Bericht).

Die verfügbaren Stationen werden durch gelbe und rote Markierungen auf der Karte dargestellt.

Führen Sie die Maus auf sie, um den Namen der Station zu sehen.

Darauf klicken, um die Beobachtung von Wetterbeobachtungen und Prognosen zu sehen.

Um die Karte zu ändern : klicken Sie auf den grünen Tasten mit einem schwarzen Kreuz Zum Vergrößern, auf den grünen Button mit einem Gedankenstrich zu verkleinern, oder auf die grünen Pfeile für benachbarte Karten.


METAR-TAF: